sensor_id;sensor_type;location;lat;lon;timestamp;P1;durP1;ratioP1;P2;durP2;ratioP2
41311;SDS011;27061;41.648;24.568;2023-08-24T00:00:26;11.63;;;7.22;;
41311;SDS011;27061;41.648;24.568;2023-08-24T00:02:53;35.83;;;9.15;;
41311;SDS011;27061;41.648;24.568;2023-08-24T00:05:20;13.77;;;8.13;;
41311;SDS011;27061;41.648;24.568;2023-08-24T00:07:50;21.55;;;8.18;;
41311;SDS011;27061;41.648;24.568;2023-08-24T00:10:18;37.30;;;9.27;;
41311;SDS011;27061;41.648;24.568;2023-08-24T00:12:45;15.13;;;7.95;;
41311;SDS011;27061;41.648;24.568;2023-08-24T00:15:12;23.42;;;8.23;;
41311;SDS011;27061;41.648;24.568;2023-08-24T00:17:39;11.43;;;8.48;;
41311;SDS011;27061;41.648;24.568;2023-08-24T00:20:07;28.15;;;8.23;;
41311;SDS011;27061;41.648;24.568;2023-08-24T00:22:38;8.60;;;7.70;;
41311;SDS011;27061;41.648;24.568;2023-08-24T00:25:06;16.13;;;8.25;;
41311;SDS011;27061;41.648;24.568;2023-08-24T00:27:35;30.48;;;9.43;;
41311;SDS011;27061;41.648;24.568;2023-08-24T00:30:03;22.15;;;8.30;;
41311;SDS011;27061;41.648;24.568;2023-08-24T00:32:33;15.73;;;8.30;;
41311;SDS011;27061;41.648;24.568;2023-08-24T00:35:04;27.90;;;10.02;;
41311;SDS011;27061;41.648;24.568;2023-08-24T00:37:33;12.13;;;8.73;;
41311;SDS011;27061;41.648;24.568;2023-08-24T00:40:01;12.93;;;7.53;;
41311;SDS011;27061;41.648;24.568;2023-08-24T00:42:39;26.10;;;8.98;;
41311;SDS011;27061;41.648;24.568;2023-08-24T00:45:08;19.80;;;8.27;;
41311;SDS011;27061;41.648;24.568;2023-08-24T00:47:46;12.95;;;8.80;;
41311;SDS011;27061;41.648;24.568;2023-08-24T00:50:17;14.70;;;8.70;;
41311;SDS011;27061;41.648;24.568;2023-08-24T00:52:47;22.58;;;8.88;;
41311;SDS011;27061;41.648;24.568;2023-08-24T00:55:18;21.92;;;8.63;;
41311;SDS011;27061;41.648;24.568;2023-08-24T00:57:46;19.08;;;9.25;;
41311;SDS011;27061;41.648;24.568;2023-08-24T01:00:15;10.80;;;8.13;;
41311;SDS011;27061;41.648;24.568;2023-08-24T01:02:43;11.88;;;8.20;;
41311;SDS011;27061;41.648;24.568;2023-08-24T01:05:10;16.42;;;8.93;;
41311;SDS011;27061;41.648;24.568;2023-08-24T01:07:38;19.55;;;8.57;;
41311;SDS011;27061;41.648;24.568;2023-08-24T01:10:08;11.40;;;8.43;;
41311;SDS011;27061;41.648;24.568;2023-08-24T01:15:32;19.60;;;8.65;;
41311;SDS011;27061;41.648;24.568;2023-08-24T01:18:05;9.70;;;8.70;;
41311;SDS011;27061;41.648;24.568;2023-08-24T01:20:35;22.33;;;9.52;;
41311;SDS011;27061;41.648;24.568;2023-08-24T01:25:53;15.55;;;8.77;;
41311;SDS011;27061;41.648;24.568;2023-08-24T01:28:41;13.10;;;7.97;;
41311;SDS011;27061;41.648;24.568;2023-08-24T01:31:10;11.93;;;8.40;;
41311;SDS011;27061;41.648;24.568;2023-08-24T01:33:39;23.52;;;10.48;;
41311;SDS011;27061;41.648;24.568;2023-08-24T01:36:08;11.68;;;9.45;;
41311;SDS011;27061;41.648;24.568;2023-08-24T01:38:37;40.17;;;10.32;;
41311;SDS011;27061;41.648;24.568;2023-08-24T01:43:54;33.83;;;10.95;;
41311;SDS011;27061;41.648;24.568;2023-08-24T01:46:28;17.23;;;9.18;;
41311;SDS011;27061;41.648;24.568;2023-08-24T01:48:57;29.40;;;9.73;;
41311;SDS011;27061;41.648;24.568;2023-08-24T01:51:26;9.68;;;8.65;;
41311;SDS011;27061;41.648;24.568;2023-08-24T01:53:53;20.52;;;9.48;;
41311;SDS011;27061;41.648;24.568;2023-08-24T01:56:21;19.13;;;9.45;;
41311;SDS011;27061;41.648;24.568;2023-08-24T01:58:48;28.33;;;10.43;;
41311;SDS011;27061;41.648;24.568;2023-08-24T02:01:15;15.95;;;9.77;;
41311;SDS011;27061;41.648;24.568;2023-08-24T02:03:43;17.48;;;9.63;;
41311;SDS011;27061;41.648;24.568;2023-08-24T02:06:10;16.95;;;8.85;;
41311;SDS011;27061;41.648;24.568;2023-08-24T02:08:37;15.50;;;8.80;;
41311;SDS011;27061;41.648;24.568;2023-08-24T02:11:04;11.15;;;8.05;;
41311;SDS011;27061;41.648;24.568;2023-08-24T02:13:32;11.65;;;8.90;;
41311;SDS011;27061;41.648;24.568;2023-08-24T02:16:05;28.60;;;8.88;;
41311;SDS011;27061;41.648;24.568;2023-08-24T02:18:39;40.63;;;9.55;;
41311;SDS011;27061;41.648;24.568;2023-08-24T02:21:11;30.20;;;9.32;;
41311;SDS011;27061;41.648;24.568;2023-08-24T02:23:41;40.97;;;10.38;;
41311;SDS011;27061;41.648;24.568;2023-08-24T02:26:08;30.10;;;9.02;;
41311;SDS011;27061;41.648;24.568;2023-08-24T02:28:36;9.35;;;8.18;;
41311;SDS011;27061;41.648;24.568;2023-08-24T02:31:04;20.05;;;8.00;;
41311;SDS011;27061;41.648;24.568;2023-08-24T02:33:32;8.88;;;8.07;;
41311;SDS011;27061;41.648;24.568;2023-08-24T02:36:00;10.05;;;8.35;;
41311;SDS011;27061;41.648;24.568;2023-08-24T02:38:28;25.98;;;8.68;;
41311;SDS011;27061;41.648;24.568;2023-08-24T02:41:01;12.65;;;8.07;;
41311;SDS011;27061;41.648;24.568;2023-08-24T02:43:32;11.10;;;8.05;;
41311;SDS011;27061;41.648;24.568;2023-08-24T02:46:01;19.08;;;8.98;;
41311;SDS011;27061;41.648;24.568;2023-08-24T02:48:30;10.15;;;8.75;;
41311;SDS011;27061;41.648;24.568;2023-08-24T02:50:58;12.27;;;8.40;;
41311;SDS011;27061;41.648;24.568;2023-08-24T02:53:26;11.18;;;9.63;;
41311;SDS011;27061;41.648;24.568;2023-08-24T02:55:54;10.70;;;8.38;;
41311;SDS011;27061;41.648;24.568;2023-08-24T02:58:22;9.93;;;8.90;;
41311;SDS011;27061;41.648;24.568;2023-08-24T03:00:49;16.35;;;8.93;;
41311;SDS011;27061;41.648;24.568;2023-08-24T03:03:16;20.33;;;8.15;;
41311;SDS011;27061;41.648;24.568;2023-08-24T03:05:57;13.77;;;8.90;;
41311;SDS011;27061;41.648;24.568;2023-08-24T03:08:27;12.13;;;8.10;;
41311;SDS011;27061;41.648;24.568;2023-08-24T03:10:56;23.10;;;8.68;;
41311;SDS011;27061;41.648;24.568;2023-08-24T03:13:24;11.07;;;8.55;;
41311;SDS011;27061;41.648;24.568;2023-08-24T03:15:53;11.60;;;8.65;;
41311;SDS011;27061;41.648;24.568;2023-08-24T03:18:23;10.00;;;8.07;;
41311;SDS011;27061;41.648;24.568;2023-08-24T03:20:50;23.25;;;9.90;;
41311;SDS011;27061;41.648;24.568;2023-08-24T03:23:17;19.70;;;9.30;;
41311;SDS011;27061;41.648;24.568;2023-08-24T03:25:44;28.90;;;9.77;;
41311;SDS011;27061;41.648;24.568;2023-08-24T03:28:12;34.22;;;8.93;;
41311;SDS011;27061;41.648;24.568;2023-08-24T03:30:46;18.35;;;9.10;;
41311;SDS011;27061;41.648;24.568;2023-08-24T03:33:15;30.35;;;9.18;;
41311;SDS011;27061;41.648;24.568;2023-08-24T03:35:43;64.80;;;10.90;;
41311;SDS011;27061;41.648;24.568;2023-08-24T03:38:10;33.78;;;9.98;;
41311;SDS011;27061;41.648;24.568;2023-08-24T03:40:37;43.47;;;9.40;;
41311;SDS011;27061;41.648;24.568;2023-08-24T03:43:05;43.25;;;10.23;;
41311;SDS011;27061;41.648;24.568;2023-08-24T03:45:32;14.75;;;7.95;;
41311;SDS011;27061;41.648;24.568;2023-08-24T03:47:59;45.65;;;10.40;;
41311;SDS011;27061;41.648;24.568;2023-08-24T03:50:26;26.52;;;9.70;;
41311;SDS011;27061;41.648;24.568;2023-08-24T03:52:54;47.22;;;10.73;;
41311;SDS011;27061;41.648;24.568;2023-08-24T03:55:21;34.90;;;9.77;;
41311;SDS011;27061;41.648;24.568;2023-08-24T03:57:49;28.67;;;9.35;;
41311;SDS011;27061;41.648;24.568;2023-08-24T04:00:17;61.58;;;11.63;;
41311;SDS011;27061;41.648;24.568;2023-08-24T04:02:44;15.00;;;9.07;;
41311;SDS011;27061;41.648;24.568;2023-08-24T04:05:20;61.05;;;11.45;;
41311;SDS011;27061;41.648;24.568;2023-08-24T04:07:47;41.65;;;10.68;;
41311;SDS011;27061;41.648;24.568;2023-08-24T04:10:15;36.90;;;10.30;;
41311;SDS011;27061;41.648;24.568;2023-08-24T04:12:42;66.80;;;11.32;;
41311;SDS011;27061;41.648;24.568;2023-08-24T04:15:09;25.77;;;10.38;;
41311;SDS011;27061;41.648;24.568;2023-08-24T04:17:37;55.13;;;11.07;;
41311;SDS011;27061;41.648;24.568;2023-08-24T04:20:07;24.25;;;9.38;;
41311;SDS011;27061;41.648;24.568;2023-08-24T04:22:34;45.92;;;11.57;;
41311;SDS011;27061;41.648;24.568;2023-08-24T04:25:02;27.25;;;10.40;;
41311;SDS011;27061;41.648;24.568;2023-08-24T04:27:29;96.68;;;13.98;;
41311;SDS011;27061;41.648;24.568;2023-08-24T04:29:56;29.65;;;9.77;;
41311;SDS011;27061;41.648;24.568;2023-08-24T04:32:24;29.42;;;10.60;;
41311;SDS011;27061;41.648;24.568;2023-08-24T04:34:51;53.45;;;11.88;;
41311;SDS011;27061;41.648;24.568;2023-08-24T04:37:18;36.20;;;11.52;;
41311;SDS011;27061;41.648;24.568;2023-08-24T04:39:46;28.70;;;10.07;;
41311;SDS011;27061;41.648;24.568;2023-08-24T04:42:13;47.08;;;10.95;;
41311;SDS011;27061;41.648;24.568;2023-08-24T04:44:40;100.38;;;14.30;;
41311;SDS011;27061;41.648;24.568;2023-08-24T04:47:08;95.75;;;13.88;;
41311;SDS011;27061;41.648;24.568;2023-08-24T04:49:36;44.85;;;11.07;;
41311;SDS011;27061;41.648;24.568;2023-08-24T04:52:03;32.28;;;9.95;;
41311;SDS011;27061;41.648;24.568;2023-08-24T04:54:45;118.07;;;16.60;;
41311;SDS011;27061;41.648;24.568;2023-08-24T04:57:12;26.95;;;9.68;;
41311;SDS011;27061;41.648;24.568;2023-08-24T04:59:41;39.28;;;10.63;;
41311;SDS011;27061;41.648;24.568;2023-08-24T05:02:08;59.00;;;11.80;;
41311;SDS011;27061;41.648;24.568;2023-08-24T05:04:35;28.88;;;10.18;;
41311;SDS011;27061;41.648;24.568;2023-08-24T05:07:03;25.58;;;10.63;;
41311;SDS011;27061;41.648;24.568;2023-08-24T05:09:30;32.55;;;10.70;;
41311;SDS011;27061;41.648;24.568;2023-08-24T05:11:58;39.13;;;10.40;;
41311;SDS011;27061;41.648;24.568;2023-08-24T05:14:25;16.80;;;9.75;;
41311;SDS011;27061;41.648;24.568;2023-08-24T05:16:52;11.45;;;9.45;;
41311;SDS011;27061;41.648;24.568;2023-08-24T05:19:20;62.97;;;13.20;;
41311;SDS011;27061;41.648;24.568;2023-08-24T05:21:47;71.75;;;12.80;;
41311;SDS011;27061;41.648;24.568;2023-08-24T05:24:14;50.28;;;12.05;;
41311;SDS011;27061;41.648;24.568;2023-08-24T05:26:41;76.72;;;12.82;;
41311;SDS011;27061;41.648;24.568;2023-08-24T05:29:08;10.15;;;8.45;;
41311;SDS011;27061;41.648;24.568;2023-08-24T05:31:36;14.13;;;9.07;;
41311;SDS011;27061;41.648;24.568;2023-08-24T05:34:03;32.17;;;9.30;;
41311;SDS011;27061;41.648;24.568;2023-08-24T05:36:30;57.30;;;11.75;;
41311;SDS011;27061;41.648;24.568;2023-08-24T05:38:57;11.88;;;8.50;;
41311;SDS011;27061;41.648;24.568;2023-08-24T05:41:31;21.70;;;8.75;;
41311;SDS011;27061;41.648;24.568;2023-08-24T05:43:59;21.05;;;9.60;;
41311;SDS011;27061;41.648;24.568;2023-08-24T05:46:26;29.98;;;9.75;;
41311;SDS011;27061;41.648;24.568;2023-08-24T05:48:53;91.72;;;12.02;;
41311;SDS011;27061;41.648;24.568;2023-08-24T05:51:22;23.83;;;9.00;;
41311;SDS011;27061;41.648;24.568;2023-08-24T05:53:49;82.85;;;11.00;;
41311;SDS011;27061;41.648;24.568;2023-08-24T05:56:21;24.48;;;9.50;;
41311;SDS011;27061;41.648;24.568;2023-08-24T05:58:49;45.08;;;10.75;;
41311;SDS011;27061;41.648;24.568;2023-08-24T06:01:17;50.65;;;11.00;;
41311;SDS011;27061;41.648;24.568;2023-08-24T06:03:44;21.98;;;9.30;;
41311;SDS011;27061;41.648;24.568;2023-08-24T06:06:12;11.18;;;8.63;;
41311;SDS011;27061;41.648;24.568;2023-08-24T06:08:39;12.05;;;7.93;;
41311;SDS011;27061;41.648;24.568;2023-08-24T06:11:07;11.88;;;7.30;;
41311;SDS011;27061;41.648;24.568;2023-08-24T06:13:35;37.38;;;8.88;;
41311;SDS011;27061;41.648;24.568;2023-08-24T06:16:02;13.63;;;7.55;;
41311;SDS011;27061;41.648;24.568;2023-08-24T06:18:29;8.63;;;7.55;;
41311;SDS011;27061;41.648;24.568;2023-08-24T06:20:57;12.73;;;7.38;;
41311;SDS011;27061;41.648;24.568;2023-08-24T06:23:24;9.68;;;7.55;;
41311;SDS011;27061;41.648;24.568;2023-08-24T06:25:51;8.65;;;7.13;;
41311;SDS011;27061;41.648;24.568;2023-08-24T06:28:18;20.92;;;7.70;;
41311;SDS011;27061;41.648;24.568;2023-08-24T06:30:46;32.67;;;7.72;;
41311;SDS011;27061;41.648;24.568;2023-08-24T06:33:16;15.38;;;7.13;;
41311;SDS011;27061;41.648;24.568;2023-08-24T06:35:44;15.70;;;7.75;;
41311;SDS011;27061;41.648;24.568;2023-08-24T06:38:11;39.83;;;9.05;;
41311;SDS011;27061;41.648;24.568;2023-08-24T06:40:38;8.32;;;7.40;;
41311;SDS011;27061;41.648;24.568;2023-08-24T06:43:05;67.15;;;10.25;;
41311;SDS011;27061;41.648;24.568;2023-08-24T06:45:33;22.73;;;7.25;;
41311;SDS011;27061;41.648;24.568;2023-08-24T06:48:00;11.25;;;6.75;;
41311;SDS011;27061;41.648;24.568;2023-08-24T06:50:27;12.52;;;7.22;;
41311;SDS011;27061;41.648;24.568;2023-08-24T06:52:54;11.10;;;7.18;;
41311;SDS011;27061;41.648;24.568;2023-08-24T06:55:22;10.73;;;7.25;;
41311;SDS011;27061;41.648;24.568;2023-08-24T06:57:49;26.52;;;7.22;;
41311;SDS011;27061;41.648;24.568;2023-08-24T07:00:19;11.32;;;7.25;;
41311;SDS011;27061;41.648;24.568;2023-08-24T07:02:51;30.90;;;7.45;;
41311;SDS011;27061;41.648;24.568;2023-08-24T07:05:18;29.02;;;8.00;;
41311;SDS011;27061;41.648;24.568;2023-08-24T07:07:45;60.13;;;9.38;;
41311;SDS011;27061;41.648;24.568;2023-08-24T07:10:21;37.53;;;7.75;;
41311;SDS011;27061;41.648;24.568;2023-08-24T07:12:48;12.30;;;6.53;;
41311;SDS011;27061;41.648;24.568;2023-08-24T07:15:15;16.55;;;7.20;;
41311;SDS011;27061;41.648;24.568;2023-08-24T07:17:42;6.82;;;6.32;;
41311;SDS011;27061;41.648;24.568;2023-08-24T07:20:10;25.33;;;7.10;;
41311;SDS011;27061;41.648;24.568;2023-08-24T07:22:40;11.73;;;6.40;;
41311;SDS011;27061;41.648;24.568;2023-08-24T07:25:08;9.13;;;7.18;;
41311;SDS011;27061;41.648;24.568;2023-08-24T07:27:37;31.05;;;6.47;;
41311;SDS011;27061;41.648;24.568;2023-08-24T07:30:04;11.02;;;6.00;;
41311;SDS011;27061;41.648;24.568;2023-08-24T07:32:52;27.40;;;7.90;;
41311;SDS011;27061;41.648;24.568;2023-08-24T07:35:20;43.13;;;6.70;;
41311;SDS011;27061;41.648;24.568;2023-08-24T07:37:48;11.10;;;6.07;;
41311;SDS011;27061;41.648;24.568;2023-08-24T07:40:15;62.88;;;9.88;;
41311;SDS011;27061;41.648;24.568;2023-08-24T07:42:46;36.25;;;7.50;;
41311;SDS011;27061;41.648;24.568;2023-08-24T07:45:22;35.80;;;8.13;;
41311;SDS011;27061;41.648;24.568;2023-08-24T07:47:53;20.90;;;6.47;;
41311;SDS011;27061;41.648;24.568;2023-08-24T07:50:21;9.45;;;6.53;;
41311;SDS011;27061;41.648;24.568;2023-08-24T07:52:49;15.77;;;7.03;;
41311;SDS011;27061;41.648;24.568;2023-08-24T07:55:16;8.93;;;6.40;;
41311;SDS011;27061;41.648;24.568;2023-08-24T07:57:43;14.75;;;6.28;;
41311;SDS011;27061;41.648;24.568;2023-08-24T08:00:11;14.27;;;6.47;;
41311;SDS011;27061;41.648;24.568;2023-08-24T08:02:40;17.92;;;6.80;;
41311;SDS011;27061;41.648;24.568;2023-08-24T08:05:08;26.35;;;7.35;;
41311;SDS011;27061;41.648;24.568;2023-08-24T08:07:37;32.22;;;7.07;;
41311;SDS011;27061;41.648;24.568;2023-08-24T08:10:04;12.20;;;6.88;;
41311;SDS011;27061;41.648;24.568;2023-08-24T08:12:33;41.42;;;7.68;;
41311;SDS011;27061;41.648;24.568;2023-08-24T08:15:00;22.70;;;6.03;;
41311;SDS011;27061;41.648;24.568;2023-08-24T08:17:28;22.90;;;6.78;;
41311;SDS011;27061;41.648;24.568;2023-08-24T08:19:57;17.38;;;6.32;;
41311;SDS011;27061;41.648;24.568;2023-08-24T08:22:25;8.18;;;6.40;;
41311;SDS011;27061;41.648;24.568;2023-08-24T08:24:52;6.30;;;5.65;;
41311;SDS011;27061;41.648;24.568;2023-08-24T08:27:25;12.77;;;5.68;;
41311;SDS011;27061;41.648;24.568;2023-08-24T08:29:52;14.85;;;6.28;;
41311;SDS011;27061;41.648;24.568;2023-08-24T08:32:19;7.30;;;5.50;;
41311;SDS011;27061;41.648;24.568;2023-08-24T08:34:47;13.30;;;6.28;;
41311;SDS011;27061;41.648;24.568;2023-08-24T08:37:14;12.93;;;6.80;;
41311;SDS011;27061;41.648;24.568;2023-08-24T08:39:41;13.30;;;6.28;;
41311;SDS011;27061;41.648;24.568;2023-08-24T08:42:13;22.20;;;7.43;;
41311;SDS011;27061;41.648;24.568;2023-08-24T08:44:45;8.85;;;6.95;;
41311;SDS011;27061;41.648;24.568;2023-08-24T08:47:13;7.50;;;6.38;;
41311;SDS011;27061;41.648;24.568;2023-08-24T08:49:41;14.15;;;6.65;;
41311;SDS011;27061;41.648;24.568;2023-08-24T08:52:10;7.32;;;6.63;;
41311;SDS011;27061;41.648;24.568;2023-08-24T08:54:38;7.30;;;6.60;;
41311;SDS011;27061;41.648;24.568;2023-08-24T08:57:05;10.52;;;7.68;;
41311;SDS011;27061;41.648;24.568;2023-08-24T08:59:33;8.27;;;6.63;;
41311;SDS011;27061;41.648;24.568;2023-08-24T09:02:02;6.95;;;6.28;;
41311;SDS011;27061;41.648;24.568;2023-08-24T09:04:32;9.18;;;6.88;;
41311;SDS011;27061;41.648;24.568;2023-08-24T09:07:00;6.88;;;6.38;;
41311;SDS011;27061;41.648;24.568;2023-08-24T09:09:30;31.10;;;7.70;;
41311;SDS011;27061;41.648;24.568;2023-08-24T09:11:59;19.42;;;6.80;;
41311;SDS011;27061;41.648;24.568;2023-08-24T09:14:27;11.15;;;6.57;;
41311;SDS011;27061;41.648;24.568;2023-08-24T09:17:01;6.55;;;5.95;;
41311;SDS011;27061;41.648;24.568;2023-08-24T09:19:34;6.55;;;5.65;;
41311;SDS011;27061;41.648;24.568;2023-08-24T09:22:02;8.00;;;5.40;;
41311;SDS011;27061;41.648;24.568;2023-08-24T09:24:34;5.68;;;5.13;;
41311;SDS011;27061;41.648;24.568;2023-08-24T09:27:15;5.95;;;5.35;;
41311;SDS011;27061;41.648;24.568;2023-08-24T09:29:53;5.88;;;5.15;;
41311;SDS011;27061;41.648;24.568;2023-08-24T09:32:35;6.60;;;6.00;;
41311;SDS011;27061;41.648;24.568;2023-08-24T09:35:09;8.88;;;5.80;;
41311;SDS011;27061;41.648;24.568;2023-08-24T09:37:41;6.95;;;5.85;;
41311;SDS011;27061;41.648;24.568;2023-08-24T09:40:12;10.25;;;5.45;;
41311;SDS011;27061;41.648;24.568;2023-08-24T09:42:43;6.55;;;5.75;;
41311;SDS011;27061;41.648;24.568;2023-08-24T09:45:11;18.77;;;6.82;;
41311;SDS011;27061;41.648;24.568;2023-08-24T09:47:53;6.10;;;5.57;;
41311;SDS011;27061;41.648;24.568;2023-08-24T09:50:23;6.75;;;5.60;;
41311;SDS011;27061;41.648;24.568;2023-08-24T09:52:59;7.95;;;6.22;;
41311;SDS011;27061;41.648;24.568;2023-08-24T09:55:33;7.13;;;5.70;;
41311;SDS011;27061;41.648;24.568;2023-08-24T09:58:03;13.82;;;6.07;;
41311;SDS011;27061;41.648;24.568;2023-08-24T10:00:39;6.90;;;5.97;;
41311;SDS011;27061;41.648;24.568;2023-08-24T10:03:06;8.93;;;6.03;;
41311;SDS011;27061;41.648;24.568;2023-08-24T10:05:35;8.82;;;6.22;;
41311;SDS011;27061;41.648;24.568;2023-08-24T10:08:24;39.20;;;7.15;;
41311;SDS011;27061;41.648;24.568;2023-08-24T10:10:55;66.93;;;8.45;;
41311;SDS011;27061;41.648;24.568;2023-08-24T10:13:36;8.95;;;5.53;;
41311;SDS011;27061;41.648;24.568;2023-08-24T10:16:13;69.35;;;7.80;;
41311;SDS011;27061;41.648;24.568;2023-08-24T10:18:43;17.55;;;6.45;;
41311;SDS011;27061;41.648;24.568;2023-08-24T10:21:11;10.02;;;6.40;;
41311;SDS011;27061;41.648;24.568;2023-08-24T10:23:38;41.95;;;7.55;;
41311;SDS011;27061;41.648;24.568;2023-08-24T10:26:09;7.57;;;6.30;;
41311;SDS011;27061;41.648;24.568;2023-08-24T10:28:38;21.33;;;6.88;;
41311;SDS011;27061;41.648;24.568;2023-08-24T10:31:06;43.83;;;7.45;;
41311;SDS011;27061;41.648;24.568;2023-08-24T10:33:33;19.20;;;7.00;;
41311;SDS011;27061;41.648;24.568;2023-08-24T10:36:04;33.00;;;7.22;;
41311;SDS011;27061;41.648;24.568;2023-08-24T10:38:34;17.15;;;6.57;;
41311;SDS011;27061;41.648;24.568;2023-08-24T10:41:10;33.50;;;6.97;;
41311;SDS011;27061;41.648;24.568;2023-08-24T10:43:48;14.25;;;7.25;;
41311;SDS011;27061;41.648;24.568;2023-08-24T10:46:16;22.92;;;6.88;;
41311;SDS011;27061;41.648;24.568;2023-08-24T10:56:36;16.17;;;6.72;;
41311;SDS011;27061;41.648;24.568;2023-08-24T10:59:15;40.30;;;7.68;;
41311;SDS011;27061;41.648;24.568;2023-08-24T11:01:53;10.10;;;7.07;;
41311;SDS011;27061;41.648;24.568;2023-08-24T11:04:23;12.13;;;6.72;;
41311;SDS011;27061;41.648;24.568;2023-08-24T11:06:58;7.50;;;6.80;;
41311;SDS011;27061;41.648;24.568;2023-08-24T11:09:45;8.02;;;7.00;;
41311;SDS011;27061;41.648;24.568;2023-08-24T11:12:15;12.80;;;6.20;;
41311;SDS011;27061;41.648;24.568;2023-08-24T11:14:49;6.68;;;5.97;;
41311;SDS011;27061;41.648;24.568;2023-08-24T11:17:29;11.07;;;6.50;;
41311;SDS011;27061;41.648;24.568;2023-08-24T11:20:00;22.42;;;7.50;;
41311;SDS011;27061;41.648;24.568;2023-08-24T11:22:31;39.88;;;7.03;;
41311;SDS011;27061;41.648;24.568;2023-08-24T11:24:59;33.83;;;7.40;;
41311;SDS011;27061;41.648;24.568;2023-08-24T11:27:27;43.88;;;7.78;;
41311;SDS011;27061;41.648;24.568;2023-08-24T11:29:59;84.07;;;8.88;;
41311;SDS011;27061;41.648;24.568;2023-08-24T11:32:27;11.52;;;6.03;;
41311;SDS011;27061;41.648;24.568;2023-08-24T11:34:54;16.98;;;5.97;;
41311;SDS011;27061;41.648;24.568;2023-08-24T11:37:21;6.43;;;5.82;;
41311;SDS011;27061;41.648;24.568;2023-08-24T11:39:49;5.95;;;5.47;;
41311;SDS011;27061;41.648;24.568;2023-08-24T11:42:16;9.60;;;5.95;;
41311;SDS011;27061;41.648;24.568;2023-08-24T11:44:49;6.20;;;5.63;;
41311;SDS011;27061;41.648;24.568;2023-08-24T11:47:19;28.10;;;6.60;;
41311;SDS011;27061;41.648;24.568;2023-08-24T11:49:46;6.63;;;5.70;;
41311;SDS011;27061;41.648;24.568;2023-08-24T11:52:13;7.97;;;5.80;;
41311;SDS011;27061;41.648;24.568;2023-08-24T11:54:43;10.25;;;5.65;;
41311;SDS011;27061;41.648;24.568;2023-08-24T11:57:10;9.63;;;6.40;;
41311;SDS011;27061;41.648;24.568;2023-08-24T11:59:38;6.10;;;5.47;;
41311;SDS011;27061;41.648;24.568;2023-08-24T12:02:07;13.18;;;5.15;;
41311;SDS011;27061;41.648;24.568;2023-08-24T12:04:38;8.90;;;6.00;;
41311;SDS011;27061;41.648;24.568;2023-08-24T12:07:13;19.98;;;5.63;;
41311;SDS011;27061;41.648;24.568;2023-08-24T12:09:41;6.88;;;5.55;;
41311;SDS011;27061;41.648;24.568;2023-08-24T12:12:15;9.98;;;5.32;;
41311;SDS011;27061;41.648;24.568;2023-08-24T12:14:44;18.23;;;5.72;;
41311;SDS011;27061;41.648;24.568;2023-08-24T12:17:13;5.40;;;4.90;;
41311;SDS011;27061;41.648;24.568;2023-08-24T12:19:42;42.33;;;7.20;;
41311;SDS011;27061;41.648;24.568;2023-08-24T12:22:15;44.15;;;6.43;;
41311;SDS011;27061;41.648;24.568;2023-08-24T12:24:44;5.85;;;5.10;;
41311;SDS011;27061;41.648;24.568;2023-08-24T12:27:25;5.90;;;5.40;;
41311;SDS011;27061;41.648;24.568;2023-08-24T12:29:53;21.08;;;5.50;;
41311;SDS011;27061;41.648;24.568;2023-08-24T12:32:20;11.07;;;5.30;;
41311;SDS011;27061;41.648;24.568;2023-08-24T12:34:52;5.82;;;5.30;;
41311;SDS011;27061;41.648;24.568;2023-08-24T12:37:25;8.82;;;5.80;;
41311;SDS011;27061;41.648;24.568;2023-08-24T12:39:53;7.13;;;5.40;;
41311;SDS011;27061;41.648;24.568;2023-08-24T12:42:20;10.20;;;5.75;;
41311;SDS011;27061;41.648;24.568;2023-08-24T12:44:47;8.98;;;4.97;;
41311;SDS011;27061;41.648;24.568;2023-08-24T12:47:15;7.82;;;5.07;;
41311;SDS011;27061;41.648;24.568;2023-08-24T12:49:42;5.85;;;5.00;;
41311;SDS011;27061;41.648;24.568;2023-08-24T12:52:11;8.38;;;4.93;;
41311;SDS011;27061;41.648;24.568;2023-08-24T12:54:38;6.50;;;5.03;;
41311;SDS011;27061;41.648;24.568;2023-08-24T12:57:05;5.93;;;5.45;;
41311;SDS011;27061;41.648;24.568;2023-08-24T12:59:32;7.13;;;5.85;;
41311;SDS011;27061;41.648;24.568;2023-08-24T13:01:59;10.38;;;6.50;;
41311;SDS011;27061;41.648;24.568;2023-08-24T13:04:27;6.75;;;6.00;;
41311;SDS011;27061;41.648;24.568;2023-08-24T13:06:57;6.53;;;5.55;;
41311;SDS011;27061;41.648;24.568;2023-08-24T13:09:24;9.05;;;6.28;;
41311;SDS011;27061;41.648;24.568;2023-08-24T13:11:52;7.38;;;6.57;;
41311;SDS011;27061;41.648;24.568;2023-08-24T13:14:19;7.28;;;6.47;;
41311;SDS011;27061;41.648;24.568;2023-08-24T13:16:47;9.38;;;6.70;;
41311;SDS011;27061;41.648;24.568;2023-08-24T13:19:16;10.10;;;6.75;;
41311;SDS011;27061;41.648;24.568;2023-08-24T13:21:43;25.35;;;6.88;;
41311;SDS011;27061;41.648;24.568;2023-08-24T13:24:10;15.07;;;6.40;;
41311;SDS011;27061;41.648;24.568;2023-08-24T13:26:37;11.32;;;7.53;;
41311;SDS011;27061;41.648;24.568;2023-08-24T13:29:07;7.20;;;6.28;;
41311;SDS011;27061;41.648;24.568;2023-08-24T13:31:34;9.68;;;6.20;;
41311;SDS011;27061;41.648;24.568;2023-08-24T13:34:02;6.78;;;5.63;;
41311;SDS011;27061;41.648;24.568;2023-08-24T13:36:31;7.82;;;6.28;;
41311;SDS011;27061;41.648;24.568;2023-08-24T13:38:58;7.38;;;6.57;;
41311;SDS011;27061;41.648;24.568;2023-08-24T13:41:25;9.30;;;6.07;;
41311;SDS011;27061;41.648;24.568;2023-08-24T13:43:52;53.80;;;7.85;;
41311;SDS011;27061;41.648;24.568;2023-08-24T13:46:19;12.85;;;6.07;;
41311;SDS011;27061;41.648;24.568;2023-08-24T13:48:46;11.55;;;5.72;;
41311;SDS011;27061;41.648;24.568;2023-08-24T13:52:00;15.48;;;6.85;;
41311;SDS011;27061;41.648;24.568;2023-08-24T13:54:27;17.42;;;6.57;;
41311;SDS011;27061;41.648;24.568;2023-08-24T13:57:06;9.13;;;6.72;;
41311;SDS011;27061;41.648;24.568;2023-08-24T13:59:37;15.15;;;7.00;;
41311;SDS011;27061;41.648;24.568;2023-08-24T14:02:21;10.02;;;7.00;;
41311;SDS011;27061;41.648;24.568;2023-08-24T14:04:48;9.93;;;7.22;;
41311;SDS011;27061;41.648;24.568;2023-08-24T14:07:15;27.77;;;8.48;;
41311;SDS011;27061;41.648;24.568;2023-08-24T14:09:42;82.00;;;19.58;;
41311;SDS011;27061;41.648;24.568;2023-08-24T14:12:29;56.63;;;16.20;;
41311;SDS011;27061;41.648;24.568;2023-08-24T14:14:57;31.52;;;14.82;;
41311;SDS011;27061;41.648;24.568;2023-08-24T14:33:48;12.98;;;9.05;;
41311;SDS011;27061;41.648;24.568;2023-08-24T14:36:17;21.35;;;10.10;;
41311;SDS011;27061;41.648;24.568;2023-08-24T14:38:44;12.45;;;8.80;;
41311;SDS011;27061;41.648;24.568;2023-08-24T14:41:13;13.18;;;9.07;;
41311;SDS011;27061;41.648;24.568;2023-08-24T14:43:41;20.25;;;10.50;;
41311;SDS011;27061;41.648;24.568;2023-08-24T14:46:08;23.85;;;10.65;;
41311;SDS011;27061;41.648;24.568;2023-08-24T14:48:36;17.92;;;9.57;;
41311;SDS011;27061;41.648;24.568;2023-08-24T14:51:03;13.80;;;8.15;;
41311;SDS011;27061;41.648;24.568;2023-08-24T14:53:30;17.23;;;8.95;;
41311;SDS011;27061;41.648;24.568;2023-08-24T14:55:58;22.98;;;9.35;;
41311;SDS011;27061;41.648;24.568;2023-08-24T14:58:26;17.58;;;9.35;;
41311;SDS011;27061;41.648;24.568;2023-08-24T15:01:01;14.30;;;8.32;;
41311;SDS011;27061;41.648;24.568;2023-08-24T15:03:29;22.48;;;9.30;;
41311;SDS011;27061;41.648;24.568;2023-08-24T15:06:04;26.67;;;10.10;;
41311;SDS011;27061;41.648;24.568;2023-08-24T15:08:39;14.68;;;9.00;;